Time;durP1;ratioP1;P1;durP2;ratioP2;P2;SDS_P1;SDS_P2;PMS_P1;PMS_P2;Temp;Humidity;BMP_temperature;BMP_pressure;BME280_temperature;BME280_humidity;BME280_pressure;Samples;Min_cycle;Max_cycle;Signal;HPM_P1;HPM_P2
2021/08/27 00:02:14;;;;;;;1999.90;999.90;;;;;;;10.44;50.28;100619.09;5067738;27;97549;-77
2021/08/27 00:04:44;;;;;;;1999.90;999.90;;;;;;;10.87;49.87;100620.75;5065302;27;100680;-77
2021/08/27 00:07:12;;;;;;;1999.90;999.90;;;;;;;10.67;50.29;100617.75;5066189;27;98037;-76
2021/08/27 00:09:40;;;;;;;1999.90;999.90;;;;;;;10.63;50.26;100621.22;5085952;27;97766;-77
2021/08/27 00:12:08;;;;;;;1999.90;999.90;;;;;;;10.57;50.41;100625.53;5067601;27;96893;-76
2021/08/27 00:14:36;;;;;;;1999.90;999.90;;;;;;;11.01;49.59;100619.25;5066095;27;99719;-76
2021/08/27 00:17:04;;;;;;;1999.90;999.90;;;;;;;10.73;50.30;100619.63;5048331;27;100794;-76
2021/08/27 00:19:32;;;;;;;1999.90;999.90;;;;;;;10.63;50.41;100623.88;5065913;27;97613;-76
2021/08/27 00:22:02;;;;;;;1999.90;999.90;;;;;;;10.63;50.28;100620.34;5048223;27;97059;-76
2021/08/27 00:24:30;;;;;;;1999.90;999.90;;;;;;;10.60;50.45;100625.59;5065987;27;99498;-76
2021/08/27 00:26:57;;;;;;;1999.90;999.90;;;;;;;10.58;50.56;100627.31;5061388;27;100779;-76
2021/08/27 00:29:25;;;;;;;1999.90;999.90;;;;;;;10.56;50.24;100627.28;5064089;27;97621;-77
2021/08/27 00:31:53;;;;;;;1999.90;999.90;;;;;;;10.50;50.58;100626.28;5048421;27;96905;-77
2021/08/27 00:34:22;;;;;;;1999.90;999.90;;;;;;;10.44;50.62;100620.84;5064296;27;101260;-76
2021/08/27 00:36:50;;;;;;;1999.90;999.90;;;;;;;10.42;50.38;100619.91;5084959;27;99312;-77
2021/08/27 00:39:19;;;;;;;1999.90;999.90;;;;;;;10.36;50.90;100620.66;5066214;27;96912;-76
2021/08/27 00:41:47;;;;;;;1999.90;999.90;;;;;;;10.34;50.85;100622.38;5050821;27;96936;-76
2021/08/27 00:44:15;;;;;;;1999.90;999.90;;;;;;;10.34;50.80;100617.06;5047388;27;102050;-76
2021/08/27 00:46:43;;;;;;;1999.90;999.90;;;;;;;10.32;50.77;100613.47;5065410;27;97950;-76
2021/08/27 00:49:11;;;;;;;1999.90;999.90;;;;;;;10.77;50.17;100617.06;5065201;27;96815;-77
2021/08/27 00:51:39;;;;;;;1999.90;999.90;;;;;;;10.55;50.72;100621.94;5051760;27;96865;-77
2021/08/27 00:54:07;;;;;;;1999.90;999.90;;;;;;;10.39;50.90;100618.09;5053276;27;99615;-76
2021/08/27 00:56:37;;;;;;;1999.90;999.90;;;;;;;10.76;50.68;100609.91;5048044;27;98887;-76
2021/08/27 00:59:06;;;;;;;1999.90;999.90;;;;;;;10.93;50.39;100604.88;5065301;27;96905;-76
2021/08/27 01:01:34;;;;;;;1999.90;999.90;;;;;;;11.01;50.47;100613.91;5048264;27;96844;-76
2021/08/27 01:04:03;;;;;;;1999.90;999.90;;;;;;;10.66;51.21;100612.41;5065230;27;97056;-77
2021/08/27 01:06:36;;;;;;;1999.90;999.90;;;;;;;10.57;51.35;100614.91;5049398;27;99335;-76
2021/08/27 01:09:06;;;;;;;1999.90;999.90;;;;;;;10.53;51.12;100613.03;5085417;27;96811;-76
2021/08/27 01:11:38;;;;;;;1999.90;999.90;;;;;;;10.34;51.62;100611.75;5049779;27;97156;-76
2021/08/27 01:14:11;;;;;;;1999.90;999.90;;;;;;;10.29;51.63;100612.53;5050380;27;99437;-76
2021/08/27 01:16:44;;;;;;;1999.90;999.90;;;;;;;10.27;51.74;100614.25;5086025;27;98651;-76
2021/08/27 01:19:34;;;;;;;1999.90;999.90;;;;;;;10.72;50.79;100621.38;5065643;27;96904;-76
2021/08/27 01:22:15;;;;;;;1999.90;999.90;;;;;;;10.76;51.18;100619.66;5082464;27;97340;-76
2021/08/27 01:24:45;;;;;;;1999.90;999.90;;;;;;;10.48;51.44;100615.63;5066066;27;101260;-77
2021/08/27 01:27:17;;;;;;;1999.90;999.90;;;;;;;10.37;51.75;100616.25;5063854;27;99342;-77
2021/08/27 01:29:49;;;;;;;1999.90;999.90;;;;;;;10.33;51.71;100619.72;5049987;27;97252;-77
2021/08/27 01:32:18;;;;;;;1999.90;999.90;;;;;;;10.32;51.74;100621.47;5065781;27;97321;-77
2021/08/27 01:34:49;;;;;;;1999.90;999.90;;;;;;;10.25;51.97;100627.53;5064313;27;100921;-76
2021/08/27 01:37:22;;;;;;;1999.90;999.90;;;;;;;10.17;52.09;100622.06;5049558;27;99698;-76
2021/08/27 01:39:53;;;;;;;1999.90;999.90;;;;;;;10.58;51.68;100630.88;5063995;27;98476;-76
2021/08/27 01:42:24;;;;;;;1999.90;999.90;;;;;;;10.70;51.57;100622.22;5046098;27;97055;-76
2021/08/27 01:44:54;;;;;;;1999.90;999.90;;;;;;;10.76;51.86;100622.31;5083009;27;97884;-76
2021/08/27 01:47:24;;;;;;;1999.90;999.90;;;;;;;10.40;52.50;100621.63;5066319;27;97769;-75
2021/08/27 01:49:53;;;;;;;1999.90;999.90;;;;;;;10.70;52.06;100616.91;5046634;27;96903;-76
2021/08/27 01:52:21;;;;;;;1999.90;999.90;;;;;;;10.36;52.80;100617.09;5050315;27;97374;-76
2021/08/27 01:54:50;;;;;;;1999.90;999.90;;;;;;;10.70;51.99;100609.81;5063621;27;98057;-76
2021/08/27 01:57:21;;;;;;;1999.90;999.90;;;;;;;10.33;52.78;100607.31;5046131;27;99564;-77
2021/08/27 01:59:49;;;;;;;1999.90;999.90;;;;;;;10.23;52.80;100613.31;5048935;27;96741;-76
2021/08/27 02:02:17;;;;;;;1999.90;999.90;;;;;;;10.15;53.00;100610.53;5084691;27;96832;-77
2021/08/27 02:04:49;;;;;;;1999.90;999.90;;;;;;;10.07;53.45;100605.91;5050744;27;99752;-77
2021/08/27 02:07:19;;;;;;;1999.90;999.90;;;;;;;9.98;53.23;100605.72;5065307;27;99310;-77
2021/08/27 02:09:47;;;;;;;1999.90;999.90;;;;;;;9.96;53.20;100618.97;5050104;27;96885;-77
2021/08/27 02:12:16;;;;;;;1999.90;999.90;;;;;;;9.95;53.16;100613.63;5049633;27;96912;-77
2021/08/27 02:14:44;;;;;;;1999.90;999.90;;;;;;;9.91;53.11;100615.31;5065683;27;98938;-77
2021/08/27 02:17:12;;;;;;;1999.90;999.90;;;;;;;9.89;53.14;100606.41;5064308;27;98607;-76
2021/08/27 02:19:40;;;;;;;1999.90;999.90;;;;;;;9.89;53.08;100619.72;5048028;27;97045;-77
2021/08/27 02:22:12;;;;;;;1999.90;999.90;;;;;;;9.83;53.11;100622.22;5066788;27;96880;-77
2021/08/27 02:24:45;;;;;;;1999.90;999.90;;;;;;;9.81;53.24;100613.31;5065797;27;99444;-76
2021/08/27 02:27:13;;;;;;;1999.90;999.90;;;;;;;9.79;53.19;100615.03;5060001;27;99443;-75
2021/08/27 02:29:42;;;;;;;1999.90;999.90;;;;;;;9.76;53.26;100617.66;5064477;27;97463;-77
2021/08/27 02:32:12;;;;;;;1999.90;999.90;;;;;;;9.75;53.24;100613.22;5049535;27;96856;-76
2021/08/27 02:34:42;;;;;;;1999.90;999.90;;;;;;;9.73;53.41;100609.63;5062837;27;97948;-76
2021/08/27 02:37:12;;;;;;;1999.90;999.90;;;;;;;9.74;53.02;100619.38;5048663;27;99303;-76
2021/08/27 02:39:42;;;;;;;1999.90;999.90;;;;;;;9.70;53.14;100603.34;5066550;27;96858;-76
2021/08/27 02:42:12;;;;;;;1999.90;999.90;;;;;;;9.70;53.22;100613.97;5085831;27;96841;-76
2021/08/27 02:44:40;;;;;;;1999.90;999.90;;;;;;;9.65;53.23;100608.53;5062821;27;98621;-77
2021/08/27 02:47:08;;;;;;;1999.90;999.90;;;;;;;10.09;52.79;100602.41;5065220;27;100920;-76
2021/08/27 02:49:36;;;;;;;1999.90;999.90;;;;;;;9.87;53.25;100612.56;5066527;27;96983;-76
2021/08/27 02:52:12;;;;;;;1999.90;999.90;;;;;;;9.83;54.28;100611.59;5065665;27;96830;-76
2021/08/27 02:54:48;;;;;;;1999.90;999.90;;;;;;;9.81;53.67;100618.63;5064018;27;99280;-77
2021/08/27 02:57:16;;;;;;;1999.90;999.90;;;;;;;9.84;53.27;100610.75;5064278;27;99565;-76
2021/08/27 02:59:44;;;;;;;1999.90;999.90;;;;;;;9.84;53.16;100605.44;5065312;27;97456;-76
2021/08/27 03:02:15;;;;;;;1999.90;999.90;;;;;;;9.84;53.39;100604.53;5047421;27;96861;-76
2021/08/27 03:04:53;;;;;;;1999.90;999.90;;;;;;;9.76;53.71;100608.78;5062349;27;102062;-76
2021/08/27 03:07:23;;;;;;;1999.90;999.90;;;;;;;9.66;53.91;100605.03;5084444;27;97898;-76
2021/08/27 03:09:57;;;;;;;1999.90;999.90;;;;;;;9.58;54.29;100603.97;5084369;27;97311;-76
2021/08/27 03:12:40;;;;;;;1999.90;999.90;;;;;;;9.52;54.52;100606.47;5081106;27;96851;-76
2021/08/27 03:15:09;;;;;;;1999.90;999.90;;;;;;;9.48;54.21;100599.28;5064772;27;99308;-76
2021/08/27 03:17:41;;;;;;;1999.90;999.90;;;;;;;9.49;53.85;100605.50;5064457;27;100849;-76
2021/08/27 03:20:16;;;;;;;1999.90;999.90;;;;;;;9.54;53.85;100602.09;5062909;27;96892;-76
2021/08/27 03:22:48;;;;;;;1999.90;999.90;;;;;;;9.54;53.83;100599.44;5065851;27;97129;-76
2021/08/27 03:25:20;;;;;;;1999.90;999.90;;;;;;;9.56;53.75;100592.41;5064207;27;99311;-76
2021/08/27 03:27:50;;;;;;;1999.90;999.90;;;;;;;9.60;53.62;100591.63;5081034;27;97672;-77
2021/08/27 03:30:21;;;;;;;1999.90;999.90;;;;;;;9.60;53.75;100590.72;5083255;27;96834;-76
2021/08/27 03:32:52;;;;;;;1999.90;999.90;;;;;;;9.58;53.87;100592.44;5083034;27;97590;-77
2021/08/27 03:35:21;;;;;;;1999.90;999.90;;;;;;;9.59;53.58;100588.94;5063314;27;100037;-76
2021/08/27 03:37:51;;;;;;;1999.90;999.90;;;;;;;9.56;53.62;100589.75;5044468;27;99281;-76
2021/08/27 03:40:22;;;;;;;1999.90;999.90;;;;;;;9.54;54.00;100579.94;5059062;27;97413;-76
2021/08/27 03:42:51;;;;;;;1999.90;999.90;;;;;;;9.54;53.62;100585.25;5064271;27;96774;-75
2021/08/27 03:45:22;;;;;;;1999.90;999.90;;;;;;;9.51;53.83;100579.88;5045025;27;98203;-76
2021/08/27 03:47:51;;;;;;;1999.90;999.90;;;;;;;9.49;53.77;100581.59;5063959;27;100317;-75
2021/08/27 03:50:19;;;;;;;1999.90;999.90;;;;;;;9.46;53.76;100566.50;5066201;27;97252;-76
2021/08/27 03:52:49;;;;;;;1999.90;999.90;;;;;;;9.45;53.66;100575.28;5086572;27;97349;-76
2021/08/27 03:55:19;;;;;;;1999.90;999.90;;;;;;;9.45;53.52;100570.00;5051955;27;99976;-76
2021/08/27 03:57:51;;;;;;;1999.90;999.90;;;;;;;9.43;53.77;100573.47;5064311;27;99260;-76
2021/08/27 04:00:37;;;;;;;1999.90;999.90;;;;;;;9.42;53.63;100575.25;5051044;27;96854;-75
2021/08/27 04:03:05;;;;;;;1999.90;999.90;;;;;;;9.42;53.66;100571.69;5066563;27;97751;-76
2021/08/27 04:05:33;;;;;;;1999.90;999.90;;;;;;;9.43;53.56;100577.03;5067569;27;100745;-76
2021/08/27 04:08:02;;;;;;;1999.90;999.90;;;;;;;9.44;53.49;100570.88;5068449;27;101130;-76
2021/08/27 04:10:30;;;;;;;1999.90;999.90;;;;;;;9.45;53.49;100570.00;5047759;27;96744;-76
2021/08/27 04:12:59;;;;;;;1999.90;999.90;;;;;;;9.42;53.44;100569.94;5088145;27;97308;-77
2021/08/27 04:15:27;;;;;;;1999.90;999.90;;;;;;;9.40;53.61;100569.00;5086308;27;97641;-77
2021/08/27 04:17:55;;;;;;;1999.90;999.90;;;;;;;9.39;53.52;100566.31;5048801;27;100595;-76
2021/08/27 04:20:23;;;;;;;1999.90;999.90;;;;;;;9.38;53.87;100562.75;5048210;27;96847;-76
2021/08/27 04:22:50;;;;;;;1999.90;999.90;;;;;;;9.36;53.37;100569.78;5069318;27;96782;-75
2021/08/27 04:25:19;;;;;;;1999.90;999.90;;;;;;;9.37;53.40;100563.59;5068279;27;100761;-77
2021/08/27 04:27:47;;;;;;;1999.90;999.90;;;;;;;9.37;53.35;100568.91;5047734;27;98965;-77
2021/08/27 04:30:16;;;;;;;1999.90;999.90;;;;;;;9.35;53.37;100569.75;5065867;27;96830;-76
2021/08/27 04:32:44;;;;;;;1999.90;999.90;;;;;;;9.32;53.49;100562.59;5067048;27;98077;-76
2021/08/27 04:35:12;;;;;;;1999.90;999.90;;;;;;;9.30;53.52;100558.16;5066087;27;100398;-77
2021/08/27 04:37:42;;;;;;;1999.90;999.90;;;;;;;9.30;53.39;100564.31;5086728;27;96723;-76
2021/08/27 04:40:10;;;;;;;1999.90;999.90;;;;;;;9.67;53.06;100555.44;5069906;27;96792;-76
2021/08/27 04:42:38;;;;;;;1999.90;999.90;;;;;;;9.46;53.51;100554.97;5089457;27;97278;-75
2021/08/27 04:45:07;;;;;;;1999.90;999.90;;;;;;;9.38;53.74;100546.81;5066938;27;100288;-75
2021/08/27 04:47:36;;;;;;;1999.90;999.90;;;;;;;9.35;53.73;100546.75;5047111;27;97929;-76
2021/08/27 04:50:06;;;;;;;1999.90;999.90;;;;;;;9.69;53.47;100549.31;5064248;27;97188;-75
2021/08/27 04:52:34;;;;;;;1999.90;999.90;;;;;;;9.47;53.89;100548.75;5048887;27;96797;-75
2021/08/27 04:55:02;;;;;;;1999.90;999.90;;;;;;;9.37;54.16;100550.31;5085714;27;98722;-76
2021/08/27 04:57:30;;;;;;;1999.90;999.90;;;;;;;9.34;54.20;100554.66;5087211;27;98271;-77
2021/08/27 04:59:58;;;;;;;1999.90;999.90;;;;;;;9.28;54.39;100549.25;5062573;27;97341;-77
2021/08/27 05:02:26;;;;;;;1999.90;999.90;;;;;;;9.23;54.32;100554.44;5082991;27;97421;-78
2021/08/27 05:04:56;;;;;;;1999.90;999.90;;;;;;;9.16;54.52;100552.50;5060293;27;99494;-78
2021/08/27 05:07:23;;;;;;;1999.90;999.90;;;;;;;9.08;54.74;100562.03;5049968;27;96912;-77
2021/08/27 05:09:51;;;;;;;1999.90;999.90;;;;;;;9.03;54.82;100558.38;5049373;27;97317;-78
2021/08/27 05:12:19;;;;;;;1999.90;999.90;;;;;;;9.00;54.75;100548.59;5068614;27;97824;-78
2021/08/27 05:14:48;;;;;;;1999.90;999.90;;;;;;;8.96;54.78;100552.03;5053232;27;99469;-78
2021/08/27 05:17:15;;;;;;;1999.90;999.90;;;;;;;8.96;54.88;100553.78;5049394;27;100822;-78
2021/08/27 05:19:43;;;;;;;1999.90;999.90;;;;;;;8.96;54.96;100562.66;5068060;27;96771;-78
2021/08/27 05:22:13;;;;;;;1999.90;999.90;;;;;;;8.98;54.65;100560.03;5051474;27;96811;-78
2021/08/27 05:24:41;;;;;;;1999.90;999.90;;;;;;;8.98;54.87;100554.72;5051015;27;100742;-78
2021/08/27 05:27:09;;;;;;;1999.90;999.90;;;;;;;9.00;54.84;100553.91;5067613;27;99210;-78
2021/08/27 05:29:37;;;;;;;1999.90;999.90;;;;;;;8.96;55.27;100552.03;5053469;27;97520;-78
2021/08/27 05:32:06;;;;;;;1999.90;999.90;;;;;;;8.94;55.16;100547.53;5050877;27;96940;-78
2021/08/27 05:34:34;;;;;;;1999.90;999.90;;;;;;;8.90;55.17;100546.59;5049333;27;100286;-78
2021/08/27 05:37:02;;;;;;;1999.90;999.90;;;;;;;8.87;55.31;100548.25;5067796;27;99524;-78
2021/08/27 05:39:31;;;;;;;1999.90;999.90;;;;;;;8.83;55.50;100560.56;5088551;27;96771;-79
2021/08/27 05:42:00;;;;;;;1999.90;999.90;;;;;;;8.78;55.57;100554.25;5052330;27;96888;-77
2021/08/27 05:44:28;;;;;;;1999.90;999.90;;;;;;;8.76;55.70;100549.75;5084945;27;98106;-80
2021/08/27 05:46:56;;;;;;;1999.90;999.90;;;;;;;8.71;55.60;100562.94;5087673;27;100108;-78
2021/08/27 05:49:24;;;;;;;1999.90;999.90;;;;;;;8.67;56.05;100557.50;5067651;27;96922;-78
2021/08/27 05:51:52;;;;;;;1999.90;999.90;;;;;;;9.09;55.81;100553.22;5085593;27;97000;-78
2021/08/27 05:54:20;;;;;;;1999.90;999.90;;;;;;;8.79;56.67;100549.81;5050932;27;98528;-78
2021/08/27 05:56:50;;;;;;;1999.90;999.90;;;;;;;8.68;57.23;100551.31;5068262;27;99131;-78
2021/08/27 05:59:18;;;;;;;1999.90;999.90;;;;;;;8.64;56.90;100555.66;5084299;27;96861;-77
2021/08/27 06:01:46;;;;;;;1999.90;999.90;;;;;;;8.60;56.70;100555.53;5066310;27;96734;-77
2021/08/27 06:04:15;;;;;;;1999.90;999.90;;;;;;;8.58;56.81;100562.56;5084681;27;98766;-77
2021/08/27 06:06:43;;;;;;;1999.90;999.90;;;;;;;8.57;57.09;100558.13;5087577;27;98537;-76
2021/08/27 06:09:10;;;;;;;1999.90;999.90;;;;;;;8.55;57.25;100573.97;5050717;27;97283;-78
2021/08/27 06:11:38;;;;;;;1999.90;999.90;;;;;;;8.53;56.94;100553.59;5069196;27;96930;-78
2021/08/27 06:14:08;;;;;;;1999.90;999.90;;;;;;;8.90;56.92;100557.19;5087060;27;97775;-77
2021/08/27 06:16:36;;;;;;;1999.90;999.90;;;;;;;8.64;57.78;100553.00;5062479;27;97722;-77
2021/08/27 06:19:07;;;;;;;1999.90;999.90;;;;;;;8.58;57.91;100567.88;5089167;27;97396;-78
2021/08/27 06:21:38;;;;;;;1999.90;999.90;;;;;;;8.49;58.36;100563.22;5068697;27;96892;-77
2021/08/27 06:24:06;;;;;;;1999.90;999.90;;;;;;;8.50;57.79;100564.09;5087921;27;97620;-80
2021/08/27 06:26:34;;;;;;;1999.90;999.90;;;;;;;8.48;57.98;100566.72;5064340;27;99133;-78
2021/08/27 06:29:03;;;;;;;1999.90;999.90;;;;;;;8.44;57.95;100558.63;5085820;27;97673;-78
2021/08/27 06:31:33;;;;;;;1999.90;999.90;;;;;;;8.41;58.30;100571.78;5068740;27;96789;-77
2021/08/27 06:34:01;;;;;;;1999.90;999.90;;;;;;;8.37;58.30;100572.59;5066423;27;98269;-78
2021/08/27 06:36:29;;;;;;;1999.90;999.90;;;;;;;8.35;58.02;100574.28;5045677;27;99280;-79
2021/08/27 06:38:57;;;;;;;1999.90;999.90;;;;;;;8.32;58.14;100566.25;5045634;27;96810;-79
2021/08/27 06:41:25;;;;;;;1999.90;999.90;;;;;;;8.28;58.23;100569.69;5070842;27;96895;-77
2021/08/27 06:43:53;;;;;;;1999.90;999.90;;;;;;;8.27;58.27;100565.22;5088703;27;99308;-77
2021/08/27 06:46:23;;;;;;;1999.90;999.90;;;;;;;8.68;58.12;100570.78;5055528;27;99531;-78
2021/08/27 06:48:53;;;;;;;1999.90;999.90;;;;;;;8.49;58.62;100571.19;5070654;27;96895;-77
2021/08/27 06:51:21;;;;;;;1999.90;999.90;;;;;;;8.42;58.95;100577.16;5067575;27;96797;-77
2021/08/27 06:53:53;;;;;;;1999.90;999.90;;;;;;;8.85;58.46;100571.19;5085255;27;97247;-77
2021/08/27 06:56:21;;;;;;;1999.90;999.90;;;;;;;8.61;59.03;100568.84;5049112;27;99991;-79
2021/08/27 06:58:50;;;;;;;1999.90;999.90;;;;;;;8.55;59.19;100575.75;5067989;27;96790;-78
2021/08/27 07:01:18;;;;;;;1999.90;999.90;;;;;;;8.53;59.30;100580.13;5064906;27;96852;-77
2021/08/27 07:03:47;;;;;;;1999.90;999.90;;;;;;;8.48;59.40;100576.41;5068768;27;99354;-77
2021/08/27 07:06:16;;;;;;;1999.90;999.90;;;;;;;8.91;58.71;100580.22;5050611;27;100400;-79
2021/08/27 07:08:44;;;;;;;1999.90;999.90;;;;;;;8.63;59.59;100576.81;5069898;27;96669;-77
2021/08/27 07:11:15;;;;;;;1999.90;999.90;;;;;;;8.51;59.61;100580.09;5049589;27;96853;-78
2021/08/27 07:13:43;;;;;;;1999.90;999.90;;;;;;;8.46;59.51;100575.47;5087355;27;97928;-80
2021/08/27 07:16:12;;;;;;;1999.90;999.90;;;;;;;8.47;59.50;100585.22;5067302;27;97490;-77
2021/08/27 07:18:40;;;;;;;1999.90;999.90;;;;;;;8.43;59.84;100584.25;5051787;27;96885;-79
2021/08/27 07:21:09;;;;;;;1999.90;999.90;;;;;;;8.43;59.52;100588.63;5052268;27;97588;-78
2021/08/27 07:23:38;;;;;;;1999.90;999.90;;;;;;;8.87;58.87;100588.06;5053347;27;99253;-78
2021/08/27 07:26:06;;;;;;;1999.90;999.90;;;;;;;8.65;59.71;100591.03;5073593;27;101489;-78
2021/08/27 07:28:36;;;;;;;1999.90;999.90;;;;;;;8.61;59.54;100605.06;5073651;27;96704;-78
2021/08/27 07:31:05;;;;;;;1999.90;999.90;;;;;;;8.56;59.82;100596.09;5092308;27;96903;-79
2021/08/27 07:33:32;;;;;;;1999.90;999.90;;;;;;;8.58;59.39;100602.34;5056319;27;97764;-78
2021/08/27 07:36:00;;;;;;;1999.90;999.90;;;;;;;8.56;59.57;100598.75;5072457;27;98030;-77
2021/08/27 07:38:28;;;;;;;1999.90;999.90;;;;;;;8.53;59.60;100596.91;5070997;27;96881;-77
2021/08/27 07:40:58;;;;;;;1999.90;999.90;;;;;;;8.51;59.48;100603.94;5071949;27;97267;-78
2021/08/27 07:43:25;;;;;;;1999.90;999.90;;;;;;;8.52;59.34;100603.06;5056558;27;99689;-79
2021/08/27 07:45:57;;;;;;;1999.90;999.90;;;;;;;8.54;59.39;100603.13;5092151;27;99497;-78
2021/08/27 07:48:25;;;;;;;1999.90;999.90;;;;;;;8.58;59.20;100600.59;5073421;27;96919;-78
2021/08/27 07:50:55;;;;;;;1999.90;999.90;;;;;;;8.59;59.09;100609.44;5071971;27;96956;-78
2021/08/27 07:53:24;;;;;;;1999.90;999.90;;;;;;;8.57;59.31;100609.38;5056386;27;99469;-77
2021/08/27 07:55:52;;;;;;;1999.90;999.90;;;;;;;8.60;59.02;100605.94;5058424;27;98430;-77
2021/08/27 07:58:21;;;;;;;1999.90;999.90;;;;;;;8.66;59.17;100608.75;5070341;27;96970;-79
2021/08/27 08:00:49;;;;;;;1999.90;999.90;;;;;;;8.64;59.16;100595.44;5089530;27;96947;-78
2021/08/27 08:03:18;;;;;;;1999.90;999.90;;;;;;;8.63;59.21;100603.34;5055388;27;99051;-77
2021/08/27 08:05:46;;;;;;;1999.90;999.90;;;;;;;8.62;59.13;100609.53;5073369;27;98622;-77
2021/08/27 08:08:14;;;;;;;1999.90;999.90;;;;;;;8.64;58.79;100608.69;5057174;27;97237;-78
2021/08/27 08:10:42;;;;;;;1999.90;999.90;;;;;;;8.63;58.93;100613.97;5072115;27;97303;-80
2021/08/27 08:13:10;;;;;;;1999.90;999.90;;;;;;;8.63;59.13;100603.34;5056037;27;96880;-80
2021/08/27 08:15:39;;;;;;;1999.90;999.90;;;;;;;8.62;59.22;100606.88;5090807;27;97998;-79
2021/08/27 08:18:07;;;;;;;1999.90;999.90;;;;;;;8.64;59.08;100611.34;5055565;27;97279;-77
2021/08/27 08:20:36;;;;;;;1999.90;999.90;;;;;;;8.64;58.98;100615.78;5091519;27;96788;-80
2021/08/27 08:23:05;;;;;;;1999.90;999.90;;;;;;;8.58;59.25;100613.84;5075232;27;97905;-77
2021/08/27 08:25:33;;;;;;;1999.90;999.90;;;;;;;8.53;59.53;100618.13;5057092;27;99351;-78
2021/08/27 08:28:01;;;;;;;1999.90;999.90;;;;;;;8.54;59.33;100616.38;5073014;27;96987;-79
2021/08/27 08:30:30;;;;;;;1999.90;999.90;;;;;;;8.58;59.13;100616.50;5068888;27;97002;-77
2021/08/27 08:33:00;;;;;;;1999.90;999.90;;;;;;;8.65;58.96;100622.84;5055172;27;100438;-76
2021/08/27 08:35:28;;;;;;;1999.90;999.90;;;;;;;8.71;59.14;100626.59;5069037;27;97245;-77
2021/08/27 08:37:56;;;;;;;1999.90;999.90;;;;;;;8.77;59.18;100623.19;5068567;27;96890;-77
2021/08/27 08:40:24;;;;;;;1999.90;999.90;;;;;;;8.83;59.07;100620.69;5055182;27;96773;-78
2021/08/27 08:42:52;;;;;;;1999.90;999.90;;;;;;;8.92;58.53;100621.81;5072825;27;98747;-78
2021/08/27 08:45:20;;;;;;;1999.90;999.90;;;;;;;9.00;58.52;100617.59;5052581;27;99718;-77
2021/08/27 08:47:50;;;;;;;1999.90;999.90;;;;;;;9.08;58.40;100621.34;5053963;27;96925;-78
2021/08/27 08:50:19;;;;;;;1999.90;999.90;;;;;;;9.13;58.35;100626.78;5055447;27;96945;-78
2021/08/27 08:52:49;;;;;;;1999.90;999.90;;;;;;;9.18;58.08;100618.06;5054762;27;100111;-78
2021/08/27 08:55:17;;;;;;;1999.90;999.90;;;;;;;9.26;58.14;100623.56;5071007;27;98147;-76
2021/08/27 08:57:45;;;;;;;1999.90;999.90;;;;;;;9.31;57.98;100628.94;5072235;27;96797;-78
2021/08/27 09:00:14;;;;;;;1999.90;999.90;;;;;;;9.35;58.08;100628.16;5071544;27;96789;-76
2021/08/27 09:02:42;;;;;;;1999.90;999.90;;;;;;;9.40;57.79;100630.06;5093366;27;98903;-78
2021/08/27 09:05:10;;;;;;;1999.90;999.90;;;;;;;9.45;57.82;100628.41;5090380;27;99334;-76
2021/08/27 09:07:39;;;;;;;1999.90;999.90;;;;;;;9.48;57.77;100628.50;5054434;27;97104;-79
2021/08/27 09:10:09;;;;;;;1999.90;999.90;;;;;;;9.52;57.72;100635.69;5090630;27;96835;-77
2021/08/27 09:12:37;;;;;;;1999.90;999.90;;;;;;;9.58;57.54;100629.63;5070704;27;98668;-79
2021/08/27 09:15:07;;;;;;;1999.90;999.90;;;;;;;9.64;57.61;100630.69;5069374;27;101261;-77
2021/08/27 09:17:37;;;;;;;1999.90;999.90;;;;;;;9.67;57.39;100632.50;5052167;27;96747;-78
2021/08/27 09:20:08;;;;;;;1999.90;999.90;;;;;;;9.72;57.35;100634.38;5071087;27;96977;-78
2021/08/27 09:22:47;;;;;;;1999.90;999.90;;;;;;;9.78;57.74;100642.50;5055299;27;100390;-79
2021/08/27 09:25:16;;;;;;;1999.90;999.90;;;;;;;9.81;57.16;100639.91;5054173;27;99191;-79
2021/08/27 09:28:01;;;;;;;1999.90;999.90;;;;;;;9.83;57.70;100640.84;5071695;27;96770;-78
2021/08/27 09:30:29;;;;;;;1999.90;999.90;;;;;;;9.87;57.05;100639.13;5088140;27;96948;-77
2021/08/27 09:32:57;;;;;;;1999.90;999.90;;;;;;;9.91;56.96;100647.22;5090939;27;97898;-77
2021/08/27 09:35:25;;;;;;;1999.90;999.90;;;;;;;9.92;57.02;100642.78;5053698;27;99559;-77
2021/08/27 09:37:55;;;;;;;1999.90;999.90;;;;;;;9.95;57.09;100643.78;5070467;27;96778;-77
2021/08/27 09:40:27;;;;;;;1999.90;999.90;;;;;;;9.97;56.97;100646.47;5053813;27;96880;-79
2021/08/27 09:42:57;;;;;;;1999.90;999.90;;;;;;;10.00;56.77;100647.41;5067003;27;97767;-77
2021/08/27 09:45:34;;;;;;;1999.90;999.90;;;;;;;10.03;56.99;100646.56;5053757;27;102207;-78
2021/08/27 09:48:04;;;;;;;1999.90;999.90;;;;;;;10.09;56.77;100647.63;5069718;27;96988;-78
2021/08/27 09:50:33;;;;;;;1999.90;999.90;;;;;;;10.10;56.92;100649.38;5068652;27;96974;-79
2021/08/27 09:53:04;;;;;;;1999.90;999.90;;;;;;;10.14;56.60;100653.91;5090270;27;97602;-79
2021/08/27 09:55:34;;;;;;;1999.90;999.90;;;;;;;10.18;56.69;100657.53;5050430;27;99586;-78
2021/08/27 09:58:06;;;;;;;1999.90;999.90;;;;;;;10.21;56.34;100663.81;5070011;27;96861;-77
2021/08/27 10:00:35;;;;;;;1999.90;999.90;;;;;;;10.23;56.55;100658.50;5057322;27;96953;-78
2021/08/27 10:03:19;;;;;;;1999.90;999.90;;;;;;;10.27;56.83;100646.16;5074093;27;99988;-79
2021/08/27 10:05:49;;;;;;;1999.90;999.90;;;;;;;10.30;56.50;100659.56;5090718;27;98049;-79
2021/08/27 10:08:20;;;;;;;1999.90;999.90;;;;;;;10.30;56.60;100652.47;5053843;27;96737;-78
2021/08/27 10:10:50;;;;;;;1999.90;999.90;;;;;;;10.27;56.87;100646.16;5071724;27;97297;-78
2021/08/27 10:13:18;;;;;;;1999.90;999.90;;;;;;;10.27;56.79;100651.50;5070863;27;98922;-78
2021/08/27 10:15:46;;;;;;;1999.90;999.90;;;;;;;10.23;56.91;100643.47;5089281;27;97807;-78
2021/08/27 10:18:14;;;;;;;1999.90;999.90;;;;;;;10.21;57.03;100650.50;5068722;27;96865;-78
2021/08/27 10:20:44;;;;;;;1999.90;999.90;;;;;;;10.25;56.64;100645.28;5069167;27;96866;-77
2021/08/27 10:23:15;;;;;;;1999.90;999.90;;;;;;;10.29;56.79;100645.34;5070046;27;99460;-78
2021/08/27 10:25:44;;;;;;;1999.90;999.90;;;;;;;10.31;56.87;100645.38;5068208;27;99245;-76
2021/08/27 10:28:13;;;;;;;1999.90;999.90;;;;;;;10.33;56.65;100638.31;5066285;27;97032;-78
2021/08/27 10:30:55;;;;;;;1999.90;999.90;;;;;;;10.38;57.09;100636.66;5067656;27;97701;-77
2021/08/27 10:34:06;;;;;;;1999.90;999.90;;;;;;;10.48;57.21;100641.31;5066504;27;98541;-77
2021/08/27 10:36:45;;;;;;;1999.90;999.90;;;;;;;10.50;58.21;100636.94;5085772;27;98702;-78
2021/08/27 10:39:32;;;;;;;1999.90;999.90;;;;;;;10.56;57.60;100637.03;5064871;27;96809;-78
2021/08/27 10:42:02;;;;;;;1999.90;999.90;;;;;;;10.59;56.63;100643.34;5054124;27;96978;-78
2021/08/27 10:44:47;;;;;;;1999.90;999.90;;;;;;;10.64;56.84;100635.41;5089761;27;97982;-77
2021/08/27 10:47:16;;;;;;;1999.90;999.90;;;;;;;10.75;56.36;100641.84;5063769;27;100639;-78
2021/08/27 10:49:54;;;;;;;1999.90;999.90;;;;;;;10.80;56.47;100640.16;5086391;27;96999;-77
2021/08/27 10:52:23;;;;;;;1999.90;999.90;;;;;;;10.85;55.74;100644.69;5083823;27;97376;-77
2021/08/27 10:55:12;;;;;;;1999.90;999.90;;;;;;;10.91;56.06;100638.56;5069503;27;99342;-78
2021/08/27 10:57:51;;;;;;;1999.90;999.90;;;;;;;10.92;56.54;100641.25;5088652;27;97824;-78
2021/08/27 11:00:35;;;;;;;1999.90;999.90;;;;;;;10.94;56.57;100633.31;5090128;27;96873;-78
2021/08/27 11:03:04;;;;;;;1999.90;999.90;;;;;;;10.97;55.78;100631.59;5068567;27;96902;-78
2021/08/27 11:05:41;;;;;;;1999.90;999.90;;;;;;;10.97;56.02;100638.69;5067347;27;99381;-77